Airfield :
LOGIN :

Register | Disclaimer

   EN    FR    IT 

 










Legend :    VFR   Marginal VFR   IFR   Intensive IFR   Very Intensive IFR
Visi :
Ceiling :
>= 8 km
>= 3000ft
5 to 8 km
1000 to 3000 ft
1500m to 5 km
500 to 1000 ft
800 to 1500m
200 to 500 ft
< 800m
< 200 ft
Symbols :   Thunderstorms  Fog  Heavy snow  Heavy precipitations  Wind > 20 kt
SIGMETs :     Misc.  Thunderstorms  Icing  Turbulence  Mountain Waves  Volcanic Ashes






- Airport Elevation : 17 ft
- IATA code : GRQ


EHGG - Groningen Eelde

CURRENT METAR :
  • 191525Z AUTO 17005KT 140V200 9999 NSC 11/08 Q1018 NOSIG

EXPIRED METARs :
  • 191455Z AUTO 19006KT 160V220 9999 NSC 11/08 Q1019 NOSIG
  • 191425Z AUTO 20007KT 170V230 9999 NSC 11/08 Q1019 NOSIG
  • 191355Z AUTO 21008KT 9999 NSC 11/08 Q1019 NOSIG
  • 191325Z AUTO 22008KT 9999 FEW019 12/08 Q1019 NOSIG
  • 191255Z AUTO 22007KT 9999 BKN016 BKN021 12/08 Q1020 NOSIG

TAF TAF EHGG
Valid from the 19 at 12:00 until the 20 at 18:00 UTC


191058Z 1912/2018 21007KT 9999 SCT020
PROB30 1918/1922 6000 MIFG
BECMG 2003/2006 14010KT
BECMG 2009/2012 19012KT
TEMPO 2013/2018 6000 RA BKN012



MET'MAP, your aeronautical weather chart ! - Copyright ORBIFLY December 2007 - Disclaimer

ORBIFLY MET'MAP TEAM :

Programming & Development : Alexandra Zaïnal
Concept & original design : Baudouin d'Aumeries
Assistance for programming : Marc-Olivier Méhu
Technical & hardware support : Manuel Goepfert

Contact : metmap@orbifly.com




SOURCES & CREDITS :

   NOAA